CPX972 Details

Departure: Schiphol International Airport (EHAM)
Arrival: Chicago O'Hare International Airport (KORD) at N/A
Route: BERGI M90 NEXUS UP59 BALIX 6120N N6230 6340N 6350N LIBOR N866A RODBO SEMTO VEPTU PEMLU SSM WYNDE9
Notes: SEASONAL FLIGHT | PERISHABLE CARGO


Current Weather Information
EHAM 231225Z 05008KT CAVOK 14/11 Q1014 NOSIG
KORD 231151Z 23008KT 10SM FEW150 04/M01 A2990 RMK AO2 SLP127 70001 T00441006 10067 20044 51024